createdAt,value
2018-08-06T00:01:11.114Z,21.50
2018-08-06T00:03:39.882Z,21.40
2018-08-06T00:06:08.582Z,21.40
2018-08-06T00:13:34.241Z,21.20
2018-08-06T00:16:03.223Z,21.20
2018-08-06T00:18:31.919Z,21.20
2018-08-06T00:21:00.646Z,21.10
2018-08-06T00:23:29.446Z,21.10
2018-08-06T00:25:58.175Z,21.10
2018-08-06T00:30:55.299Z,21.00
2018-08-06T00:33:24.043Z,21.00
2018-08-06T00:35:53.054Z,20.90
2018-08-06T00:38:21.766Z,20.90
2018-08-06T00:40:50.483Z,20.80
2018-08-06T00:43:19.192Z,20.90
2018-08-06T00:45:47.907Z,20.90
2018-08-06T00:48:16.657Z,20.80
2018-08-06T00:50:45.371Z,20.70
2018-08-06T00:53:14.088Z,20.70
2018-08-06T00:55:42.797Z,20.70
2018-08-06T00:58:11.818Z,20.70
2018-08-06T01:03:08.958Z,20.60
2018-08-06T01:05:37.990Z,20.60
2018-08-06T01:08:06.708Z,20.60
2018-08-06T01:10:35.421Z,20.50
2018-08-06T01:13:04.147Z,20.50
2018-08-06T01:15:32.846Z,20.50
2018-08-06T01:18:08.075Z,20.40
2018-08-06T01:20:36.816Z,20.40
2018-08-06T01:23:05.547Z,20.30
2018-08-06T01:30:31.205Z,20.40
2018-08-06T01:32:59.956Z,20.50
2018-08-06T01:35:28.675Z,20.60
2018-08-06T01:37:57.380Z,20.50
2018-08-06T01:40:26.366Z,20.50
2018-08-06T01:42:55.066Z,20.40
2018-08-06T01:45:23.786Z,20.30
2018-08-06T01:47:52.508Z,20.30
2018-08-06T01:50:21.254Z,20.20
2018-08-06T01:52:50.307Z,20.10
2018-08-06T01:55:19.009Z,20.10
2018-08-06T01:57:47.704Z,20.10
2018-08-06T02:00:16.999Z,20.10
2018-08-06T02:02:45.733Z,20.30
2018-08-06T02:05:14.715Z,20.40
2018-08-06T02:07:43.494Z,20.50
2018-08-06T02:10:15.303Z,20.50
2018-08-06T02:15:13.492Z,20.20
2018-08-06T02:17:42.199Z,20.20
2018-08-06T02:20:13.751Z,20.10
2018-08-06T02:22:42.619Z,20.00
2018-08-06T02:27:40.299Z,20.00
2018-08-06T02:30:12.577Z,20.00
2018-08-06T02:35:12.514Z,19.90
2018-08-06T02:37:41.903Z,19.80
2018-08-06T02:42:39.918Z,19.80
2018-08-06T02:45:09.495Z,19.80
2018-08-06T02:47:38.909Z,19.80
2018-08-06T02:52:37.156Z,19.70
2018-08-06T02:55:07.455Z,19.70
2018-08-06T02:57:36.461Z,19.60
2018-08-06T03:00:07.962Z,19.60
2018-08-06T03:02:36.680Z,19.70
2018-08-06T03:05:11.472Z,19.70
2018-08-06T03:07:40.600Z,19.80
2018-08-06T03:10:09.400Z,19.80
2018-08-06T03:12:38.086Z,19.80
2018-08-06T03:15:07.872Z,19.80
2018-08-06T03:17:36.858Z,19.80
2018-08-06T03:22:39.904Z,19.70
2018-08-06T03:25:10.922Z,19.70
2018-08-06T03:27:39.832Z,19.60
2018-08-06T03:30:10.959Z,19.60
2018-08-06T03:32:39.687Z,19.50
2018-08-06T03:35:09.284Z,19.60
2018-08-06T03:37:38.007Z,19.60
2018-08-06T03:40:07.301Z,19.70
2018-08-06T03:42:35.967Z,19.70
2018-08-06T03:45:06.151Z,19.60
2018-08-06T03:52:32.624Z,19.50
2018-08-06T03:55:01.339Z,19.40
2018-08-06T03:57:30.308Z,19.40
2018-08-06T03:59:59.033Z,19.40
2018-08-06T04:02:27.741Z,19.40
2018-08-06T04:04:56.484Z,19.40
2018-08-06T04:07:25.191Z,19.50
2018-08-06T04:09:53.899Z,19.50
2018-08-06T04:12:22.622Z,19.40
2018-08-06T04:14:51.354Z,19.40
2018-08-06T04:17:20.311Z,19.40
2018-08-06T04:19:49.075Z,19.40
2018-08-06T04:22:17.739Z,19.40
2018-08-06T04:24:46.779Z,19.50
2018-08-06T04:27:15.515Z,19.40
2018-08-06T04:29:44.251Z,19.40
2018-08-06T04:32:13.001Z,19.40
2018-08-06T04:34:41.722Z,19.40
2018-08-06T04:37:10.431Z,19.40
2018-08-06T04:39:39.156Z,19.40
2018-08-06T04:42:07.900Z,19.40
2018-08-06T04:44:36.648Z,19.50
2018-08-06T04:47:05.663Z,19.50
2018-08-06T04:49:34.387Z,19.40
2018-08-06T04:52:03.095Z,19.50
2018-08-06T04:54:31.832Z,19.50
2018-08-06T04:57:01.224Z,19.40
2018-08-06T05:01:58.412Z,19.40
2018-08-06T05:04:27.140Z,19.40
2018-08-06T05:06:55.873Z,19.50
2018-08-06T05:09:25.694Z,19.50
2018-08-06T05:11:54.420Z,19.40
2018-08-06T05:14:23.157Z,19.50
2018-08-06T05:19:20.432Z,19.60
2018-08-06T05:21:49.111Z,19.70
2018-08-06T05:26:46.287Z,19.80
2018-08-06T05:29:15.045Z,19.70
2018-08-06T05:31:43.727Z,19.70
2018-08-06T05:34:12.464Z,19.80
2018-08-06T05:36:41.188Z,19.70
2018-08-06T05:39:10.236Z,19.80
2018-08-06T05:41:38.966Z,19.80
2018-08-06T05:44:07.716Z,19.70
2018-08-06T05:46:36.456Z,19.60
2018-08-06T05:49:05.252Z,19.70
2018-08-06T05:51:34.007Z,19.70
2018-08-06T05:54:03.078Z,19.80
2018-08-06T05:56:31.789Z,19.80
2018-08-06T05:59:00.503Z,19.70
2018-08-06T06:01:29.250Z,19.80
2018-08-06T06:03:57.992Z,19.80
2018-08-06T06:06:26.707Z,19.80
2018-08-06T06:08:55.443Z,19.90
2018-08-06T06:11:24.159Z,20.00
2018-08-06T06:13:52.864Z,20.10
2018-08-06T06:18:50.106Z,20.30
2018-08-06T06:21:18.864Z,20.30
2018-08-06T06:23:47.740Z,20.30
2018-08-06T06:26:16.451Z,20.30
2018-08-06T06:28:45.199Z,20.20
2018-08-06T06:31:13.993Z,20.30
2018-08-06T06:36:11.213Z,20.40
2018-08-06T06:38:39.996Z,20.50
2018-08-06T06:41:08.775Z,20.60
2018-08-06T06:43:37.518Z,20.60
2018-08-06T06:46:06.372Z,20.60
2018-08-06T06:48:35.134Z,20.70
2018-08-06T06:51:04.206Z,20.70
2018-08-06T06:53:32.912Z,20.70
2018-08-06T06:56:01.626Z,20.80
2018-08-06T06:58:30.361Z,20.80
2018-08-06T07:00:59.082Z,20.80
2018-08-06T07:03:27.808Z,20.90
2018-08-06T07:05:56.513Z,20.90
2018-08-06T07:10:53.650Z,20.90
2018-08-06T07:13:22.370Z,20.90
2018-08-06T07:15:51.120Z,20.90
2018-08-06T07:18:19.863Z,21.00
2018-08-06T07:20:48.621Z,21.00
2018-08-06T07:25:45.783Z,21.00
2018-08-06T07:28:14.524Z,21.10
2018-08-06T07:30:43.247Z,21.20
2018-08-06T07:33:11.980Z,21.20
2018-08-06T07:35:40.714Z,21.30
2018-08-06T07:38:09.427Z,21.30
2018-08-06T07:43:06.866Z,21.20
2018-08-06T07:45:35.626Z,21.20
2018-08-06T07:48:04.896Z,21.30
2018-08-06T07:53:02.520Z,21.30
2018-08-06T07:55:31.302Z,21.30
2018-08-06T07:58:00.367Z,21.30
2018-08-06T08:00:29.077Z,21.40
2018-08-06T08:02:57.906Z,21.40
2018-08-06T08:05:26.679Z,21.40
2018-08-06T08:07:55.467Z,21.40
2018-08-06T08:10:24.635Z,21.50
2018-08-06T08:12:53.489Z,21.50
2018-08-06T08:17:51.398Z,21.60
2018-08-06T08:20:20.285Z,21.60
2018-08-06T08:22:48.885Z,21.60
2018-08-06T08:25:22.909Z,21.70
2018-08-06T08:27:51.753Z,21.70
2018-08-06T08:30:20.660Z,21.70
2018-08-06T08:32:49.423Z,21.80
2018-08-06T08:35:18.343Z,21.80
2018-08-06T08:37:47.207Z,21.80
2018-08-06T08:40:21.067Z,21.80
2018-08-06T08:42:49.903Z,21.80
2018-08-06T08:45:19.072Z,21.90
2018-08-06T08:47:47.888Z,21.90
2018-08-06T08:50:18.132Z,21.90
2018-08-06T08:55:16.649Z,21.90
2018-08-06T08:57:45.518Z,21.90
2018-08-06T09:00:15.444Z,22.00
2018-08-06T09:05:14.476Z,21.90
2018-08-06T09:07:43.971Z,22.00
2018-08-06T09:10:14.094Z,22.00
2018-08-06T09:12:43.231Z,22.10
2018-08-06T09:15:14.754Z,22.20
2018-08-06T09:17:43.647Z,22.10
2018-08-06T09:20:12.738Z,22.20
2018-08-06T09:22:42.402Z,22.20
2018-08-06T09:25:11.959Z,22.20
2018-08-06T09:27:42.063Z,22.30
2018-08-06T09:30:14.971Z,22.30
2018-08-06T09:32:45.054Z,22.30
2018-08-06T09:35:14.610Z,22.30
2018-08-06T09:37:43.358Z,22.30
2018-08-06T09:42:44.250Z,22.40
2018-08-06T09:45:14.119Z,22.40
2018-08-06T09:47:44.043Z,22.40
2018-08-06T09:50:13.455Z,22.50
2018-08-06T09:52:43.249Z,22.50
2018-08-06T09:57:41.891Z,22.60
2018-08-06T10:00:20.225Z,22.60
2018-08-06T10:02:49.905Z,22.60
2018-08-06T10:05:19.703Z,22.60
2018-08-06T10:07:48.459Z,22.70
2018-08-06T10:10:17.267Z,22.70
2018-08-06T10:12:46.488Z,22.70
2018-08-06T10:15:15.659Z,22.80
2018-08-06T10:22:43.992Z,22.90
2018-08-06T10:25:13.699Z,22.90
2018-08-06T10:27:43.182Z,22.90
2018-08-06T10:30:14.633Z,23.00
2018-08-06T10:32:43.630Z,23.00
2018-08-06T10:35:13.247Z,23.00
2018-08-06T10:40:13.662Z,23.10
2018-08-06T10:42:43.203Z,23.10
2018-08-06T10:50:11.146Z,23.20
2018-08-06T10:52:39.999Z,23.30
2018-08-06T10:55:09.599Z,23.30
2018-08-06T11:00:10.391Z,23.30
2018-08-06T11:02:39.197Z,23.30
2018-08-06T11:05:09.331Z,23.40
2018-08-06T11:07:38.213Z,23.40
2018-08-06T11:10:09.939Z,23.40
2018-08-06T11:12:39.074Z,23.40
2018-08-06T11:15:12.114Z,23.50
2018-08-06T11:17:40.857Z,23.50
2018-08-06T11:20:11.461Z,23.50
2018-08-06T11:22:40.558Z,23.50
2018-08-06T11:25:10.943Z,23.60
2018-08-06T11:27:39.730Z,23.70
2018-08-06T11:32:38.630Z,23.70
2018-08-06T11:37:36.127Z,23.80
2018-08-06T11:40:06.241Z,23.90
2018-08-06T11:42:35.286Z,23.90
2018-08-06T11:45:04.560Z,23.90
2018-08-06T11:47:33.366Z,24.00
2018-08-06T11:50:02.124Z,24.00
2018-08-06T11:52:30.852Z,24.00
2018-08-06T11:54:59.655Z,24.00
2018-08-06T11:57:28.434Z,24.10
2018-08-06T11:59:57.195Z,24.10
2018-08-06T12:02:26.373Z,24.10
2018-08-06T12:04:55.088Z,24.20
2018-08-06T12:07:23.804Z,24.20
2018-08-06T12:09:52.529Z,24.20
2018-08-06T12:14:49.738Z,24.20
2018-08-06T12:17:18.461Z,24.30
2018-08-06T12:19:47.208Z,24.30
2018-08-06T12:22:15.919Z,24.40
2018-08-06T12:24:44.719Z,24.50
2018-08-06T12:27:13.609Z,24.60
2018-08-06T12:29:42.465Z,24.70
2018-08-06T12:32:11.637Z,24.70
2018-08-06T12:34:40.358Z,24.80
2018-08-06T12:37:09.074Z,24.80
2018-08-06T12:39:37.819Z,24.80
2018-08-06T12:42:06.638Z,24.80
2018-08-06T12:44:35.394Z,24.80
2018-08-06T12:47:04.218Z,24.80
2018-08-06T12:49:32.954Z,24.80
2018-08-06T12:52:01.810Z,24.80
2018-08-06T12:54:30.535Z,24.80
2018-08-06T12:56:59.292Z,24.90
2018-08-06T12:59:28.045Z,24.90
2018-08-06T13:01:56.865Z,25.10
2018-08-06T13:04:25.794Z,25.10
2018-08-06T13:06:54.525Z,25.10
2018-08-06T13:09:23.350Z,25.20
2018-08-06T13:14:20.553Z,25.20
2018-08-06T13:16:49.293Z,25.30
2018-08-06T13:19:18.031Z,25.30
2018-08-06T13:21:46.774Z,25.30
2018-08-06T13:24:15.508Z,25.40
2018-08-06T13:26:44.269Z,25.40
2018-08-06T13:31:41.435Z,25.50
2018-08-06T13:34:10.175Z,25.40
2018-08-06T13:36:38.992Z,25.40
2018-08-06T13:39:08.857Z,25.50
2018-08-06T13:41:37.595Z,25.50
2018-08-06T13:44:06.395Z,25.50
2018-08-06T13:49:03.929Z,25.60
2018-08-06T13:51:32.643Z,25.70
2018-08-06T13:54:01.395Z,25.60
2018-08-06T13:56:30.141Z,25.70
2018-08-06T13:58:58.874Z,25.70
2018-08-06T14:01:27.622Z,25.70
2018-08-06T14:03:56.354Z,25.70
2018-08-06T14:06:25.312Z,25.70
2018-08-06T14:08:54.166Z,25.80
2018-08-06T14:11:23.000Z,25.80
2018-08-06T14:13:51.908Z,25.80
2018-08-06T14:16:20.642Z,25.80
2018-08-06T14:21:18.245Z,25.90
2018-08-06T14:23:46.988Z,25.90
2018-08-06T14:26:15.747Z,25.90
2018-08-06T14:28:44.808Z,25.90
2018-08-06T14:31:13.602Z,26.00
2018-08-06T14:33:42.308Z,26.00
2018-08-06T14:36:11.032Z,26.00
2018-08-06T14:38:39.836Z,26.00
2018-08-06T14:41:08.650Z,26.00
2018-08-06T14:43:37.381Z,26.00
2018-08-06T14:46:06.391Z,26.00
2018-08-06T14:48:35.276Z,26.00
2018-08-06T14:51:04.085Z,26.10
2018-08-06T14:53:32.941Z,26.10
2018-08-06T14:56:01.926Z,26.10
2018-08-06T14:58:30.637Z,26.10
2018-08-06T15:00:59.650Z,26.20
2018-08-06T15:03:28.468Z,26.10
2018-08-06T15:05:57.215Z,26.10
2018-08-06T15:08:26.227Z,26.10
2018-08-06T15:10:55.075Z,26.10
2018-08-06T15:13:23.797Z,26.20
2018-08-06T15:15:52.500Z,26.20
2018-08-06T15:23:18.584Z,26.30
2018-08-06T15:25:47.298Z,26.40
2018-08-06T15:28:16.139Z,26.40
2018-08-06T15:30:44.932Z,26.40
2018-08-06T15:33:13.697Z,26.50
2018-08-06T15:35:42.591Z,26.50
2018-08-06T15:38:11.373Z,26.60
2018-08-06T15:40:40.086Z,26.60
2018-08-06T15:45:37.380Z,26.60
2018-08-06T15:48:06.128Z,26.50
2018-08-06T15:50:35.161Z,26.60
2018-08-06T15:53:03.908Z,26.60
2018-08-06T15:55:32.629Z,26.60
2018-08-06T15:58:01.375Z,26.70
2018-08-06T16:00:30.097Z,26.70
2018-08-06T16:07:55.817Z,26.70
2018-08-06T16:10:24.522Z,26.70
2018-08-06T16:15:21.999Z,26.70
2018-08-06T16:20:19.632Z,26.70
2018-08-06T16:22:48.356Z,26.70
2018-08-06T16:25:17.090Z,26.70
2018-08-06T16:27:45.822Z,26.70
2018-08-06T16:30:19.261Z,26.70
2018-08-06T16:32:48.439Z,26.70
2018-08-06T16:37:47.564Z,26.70
2018-08-06T16:40:16.324Z,26.80
2018-08-06T16:42:45.318Z,26.80
2018-08-06T16:45:14.379Z,26.80
2018-08-06T16:47:43.100Z,26.80
2018-08-06T16:50:13.381Z,26.80
2018-08-06T16:52:42.263Z,26.80
2018-08-06T16:55:11.231Z,26.90
2018-08-06T17:00:12.044Z,27.00
2018-08-06T17:02:40.791Z,27.00
2018-08-06T17:05:11.100Z,27.00
2018-08-06T17:10:11.044Z,27.00
2018-08-06T17:12:39.815Z,27.00
2018-08-06T17:15:09.642Z,27.00
2018-08-06T17:17:38.445Z,27.00
2018-08-06T17:20:11.235Z,27.10
2018-08-06T17:25:09.311Z,27.10
2018-08-06T17:27:38.381Z,27.20
2018-08-06T17:32:36.480Z,27.30
2018-08-06T17:37:34.049Z,27.30
2018-08-06T17:44:59.890Z,29.00
2018-08-06T17:47:28.921Z,29.30
2018-08-06T17:49:57.626Z,29.20
2018-08-06T17:52:26.344Z,28.80
2018-08-06T17:54:55.098Z,28.40
2018-08-06T17:57:23.827Z,28.10
2018-08-06T17:59:52.536Z,27.90
2018-08-06T18:04:50.123Z,27.60
2018-08-06T18:09:47.705Z,27.40
2018-08-06T18:12:16.436Z,27.30
2018-08-06T18:14:45.178Z,27.30
2018-08-06T18:19:42.764Z,27.00
2018-08-06T18:22:11.505Z,27.00
2018-08-06T18:24:40.338Z,26.90
2018-08-06T18:29:37.670Z,26.80
2018-08-06T18:32:06.930Z,26.70
2018-08-06T18:34:35.687Z,26.70
2018-08-06T18:37:04.898Z,26.70
2018-08-06T18:39:33.837Z,26.70
2018-08-06T18:42:02.560Z,26.60
2018-08-06T18:44:31.272Z,26.60
2018-08-06T18:47:00.262Z,26.60
2018-08-06T18:49:29.025Z,26.50
2018-08-06T18:51:58.662Z,26.40
2018-08-06T18:54:27.356Z,26.50
2018-08-06T18:56:56.083Z,26.40
2018-08-06T18:59:24.873Z,26.40
2018-08-06T19:01:53.868Z,26.40
2018-08-06T19:04:22.857Z,26.30
2018-08-06T19:06:51.817Z,26.30
2018-08-06T19:09:20.665Z,26.20
2018-08-06T19:11:49.507Z,26.20
2018-08-06T19:14:24.068Z,26.20
2018-08-06T19:16:53.319Z,26.20
2018-08-06T19:19:25.183Z,26.20
2018-08-06T19:21:54.787Z,26.10
2018-08-06T19:24:29.080Z,26.10
2018-08-06T19:26:57.857Z,26.00
2018-08-06T19:29:26.691Z,25.90
2018-08-06T19:31:55.570Z,25.90
2018-08-06T19:34:24.320Z,25.90
2018-08-06T19:36:58.570Z,25.90
2018-08-06T19:39:27.283Z,25.80
2018-08-06T19:41:56.107Z,25.80
2018-08-06T19:44:24.952Z,25.70
2018-08-06T19:46:53.695Z,25.70
2018-08-06T19:51:33.140Z,25.70
2018-08-06T19:54:02.854Z,25.70
2018-08-06T19:59:00.012Z,25.50
2018-08-06T20:01:29.067Z,25.40
2018-08-06T20:03:57.804Z,25.40
2018-08-06T20:06:26.527Z,25.40
2018-08-06T20:08:55.285Z,25.40
2018-08-06T20:11:23.983Z,25.40
2018-08-06T20:16:21.215Z,25.30
2018-08-06T20:18:49.922Z,25.30
2018-08-06T20:21:18.658Z,25.30
2018-08-06T20:23:47.400Z,25.30
2018-08-06T20:26:16.167Z,25.20
2018-08-06T20:28:44.955Z,25.20
2018-08-06T20:31:13.679Z,25.20
2018-08-06T20:36:10.816Z,25.20
2018-08-06T20:38:39.537Z,25.10
2018-08-06T20:43:36.951Z,25.10
2018-08-06T20:46:05.724Z,25.10
2018-08-06T20:48:34.495Z,25.10
2018-08-06T20:51:03.187Z,25.00
2018-08-06T20:53:32.073Z,25.00
2018-08-06T20:58:29.297Z,24.90
2018-08-06T21:00:58.047Z,24.90
2018-08-06T21:03:26.828Z,24.90
2018-08-06T21:05:55.578Z,24.90
2018-08-06T21:08:24.449Z,24.90
2018-08-06T21:10:53.167Z,24.90
2018-08-06T21:13:21.947Z,24.90
2018-08-06T21:15:50.734Z,24.80
2018-08-06T21:18:19.486Z,24.80
2018-08-06T21:20:48.224Z,24.80
2018-08-06T21:23:16.928Z,24.80
2018-08-06T21:25:45.633Z,24.80
2018-08-06T21:28:14.474Z,24.70
2018-08-06T21:30:43.228Z,24.70
2018-08-06T21:33:12.022Z,24.70
2018-08-06T21:35:40.743Z,24.60
2018-08-06T21:38:09.563Z,24.60
2018-08-06T21:40:38.295Z,24.60
2018-08-06T21:43:07.338Z,24.60
2018-08-06T21:48:04.599Z,24.60
2018-08-06T21:50:33.391Z,24.60
2018-08-06T21:53:02.296Z,24.60
2018-08-06T21:55:31.281Z,24.50
2018-08-06T21:58:00.186Z,24.50
2018-08-06T22:00:36.973Z,24.50
2018-08-06T22:03:16.386Z,24.50
2018-08-06T22:05:45.566Z,24.50
2018-08-06T22:08:14.314Z,24.40
2018-08-06T22:10:43.023Z,24.40
2018-08-06T22:13:11.828Z,24.40
2018-08-06T22:15:40.598Z,24.40
2018-08-06T22:18:10.634Z,24.40
2018-08-06T22:20:39.407Z,24.30
2018-08-06T22:23:08.698Z,24.30
2018-08-06T22:25:37.409Z,24.30
2018-08-06T22:28:07.784Z,24.30
2018-08-06T22:30:36.754Z,24.30
2018-08-06T22:33:06.055Z,24.20
2018-08-06T22:40:31.819Z,24.20
2018-08-06T22:43:00.600Z,24.20
2018-08-06T22:45:29.301Z,24.20
2018-08-06T22:47:58.076Z,24.20
2018-08-06T22:50:27.077Z,24.20
2018-08-06T22:52:55.806Z,24.20
2018-08-06T22:55:24.586Z,24.20
2018-08-06T22:57:53.328Z,24.10
2018-08-06T23:05:18.942Z,24.10
2018-08-06T23:07:47.676Z,24.10
2018-08-06T23:10:17.381Z,24.10
2018-08-06T23:12:46.187Z,24.10
2018-08-06T23:15:15.884Z,24.10
2018-08-06T23:17:45.040Z,24.00
2018-08-06T23:20:13.712Z,24.00
2018-08-06T23:22:42.453Z,24.00
2018-08-06T23:25:11.255Z,24.00
2018-08-06T23:27:40.148Z,24.00
2018-08-06T23:30:11.913Z,24.00
2018-08-06T23:32:40.953Z,24.00
2018-08-06T23:35:10.891Z,23.90
2018-08-06T23:37:41.139Z,23.90
2018-08-06T23:40:10.829Z,23.90
2018-08-06T23:45:10.059Z,23.90
2018-08-06T23:52:38.560Z,23.80
